createdAt,value
2018-07-17T00:00:48.817Z,5.87
2018-07-17T00:03:17.235Z,5.37
2018-07-17T00:05:45.677Z,5.90
2018-07-17T00:08:14.086Z,5.10
2018-07-17T00:10:42.510Z,6.13
2018-07-17T00:13:10.967Z,6.03
2018-07-17T00:15:39.365Z,5.43
2018-07-17T00:18:07.844Z,5.90
2018-07-17T00:20:36.278Z,5.53
2018-07-17T00:23:04.740Z,6.27
2018-07-17T00:25:33.177Z,5.93
2018-07-17T00:28:01.593Z,6.30
2018-07-17T00:30:29.695Z,4.70
2018-07-17T00:32:58.387Z,5.70
2018-07-17T00:35:26.818Z,6.37
2018-07-17T00:37:55.251Z,6.30
2018-07-17T00:40:23.835Z,5.70
2018-07-17T00:42:52.318Z,6.10
2018-07-17T00:45:20.750Z,5.70
2018-07-17T00:47:49.164Z,6.00
2018-07-17T00:50:17.594Z,6.33
2018-07-17T00:52:45.994Z,6.00
2018-07-17T00:55:14.465Z,5.60
2018-07-17T00:57:42.756Z,6.10
2018-07-17T01:00:11.181Z,6.40
2018-07-17T01:02:44.864Z,5.77
2018-07-17T01:05:18.479Z,5.83
2018-07-17T01:07:52.161Z,5.80
2018-07-17T01:10:26.100Z,6.00
2018-07-17T01:12:53.801Z,5.40
2018-07-17T01:15:28.476Z,5.90
2018-07-17T01:17:56.886Z,5.57
2018-07-17T01:20:25.464Z,6.03
2018-07-17T01:22:54.079Z,5.80
2018-07-17T01:25:22.681Z,5.70
2018-07-17T01:27:51.132Z,6.17
2018-07-17T01:30:19.558Z,6.03
2018-07-17T01:32:48.000Z,4.57
2018-07-17T01:35:16.434Z,5.77
2018-07-17T01:37:44.904Z,6.07
2018-07-17T01:40:13.349Z,6.43
2018-07-17T01:42:41.773Z,5.73
2018-07-17T01:45:10.213Z,6.80
2018-07-17T01:47:38.667Z,6.43
2018-07-17T01:50:07.142Z,6.00
2018-07-17T01:52:35.600Z,6.60
2018-07-17T01:55:04.081Z,5.93
2018-07-17T01:57:32.569Z,6.87
2018-07-17T02:00:00.991Z,6.00
2018-07-17T02:02:29.418Z,5.50
2018-07-17T02:04:57.874Z,6.23
2018-07-17T02:07:26.322Z,6.60
2018-07-17T02:09:54.754Z,6.30
2018-07-17T02:12:23.228Z,6.60
2018-07-17T02:14:51.682Z,6.60
2018-07-17T02:17:20.133Z,6.60
2018-07-17T02:19:48.568Z,6.60
2018-07-17T02:22:17.019Z,6.27
2018-07-17T02:24:45.446Z,6.73
2018-07-17T02:27:13.917Z,5.90
2018-07-17T02:29:42.394Z,6.97
2018-07-17T02:32:10.878Z,6.10
2018-07-17T02:34:39.323Z,6.27
2018-07-17T02:37:07.813Z,6.27
2018-07-17T02:39:36.270Z,5.80
2018-07-17T02:42:04.763Z,5.80
2018-07-17T02:44:33.217Z,6.37
2018-07-17T02:47:01.694Z,7.17
2018-07-17T02:49:30.172Z,6.30
2018-07-17T02:51:58.642Z,6.90
2018-07-17T02:54:27.082Z,5.90
2018-07-17T02:56:55.578Z,6.05
2018-07-17T02:59:24.178Z,5.73
2018-07-17T03:01:52.642Z,6.30
2018-07-17T03:04:21.115Z,7.07
2018-07-17T03:06:49.671Z,5.97
2018-07-17T03:09:18.155Z,5.60
2018-07-17T03:11:46.605Z,6.45
2018-07-17T03:14:15.051Z,5.77
2018-07-17T03:16:43.521Z,5.80
2018-07-17T03:19:11.987Z,7.30
2018-07-17T03:21:40.430Z,6.27
2018-07-17T03:24:08.942Z,6.27
2018-07-17T03:26:37.381Z,6.42
2018-07-17T03:29:06.001Z,7.22
2018-07-17T03:31:34.505Z,6.67
2018-07-17T03:34:03.022Z,6.12
2018-07-17T03:36:31.770Z,7.08
2018-07-17T03:39:00.289Z,6.37
2018-07-17T03:41:28.757Z,6.40
2018-07-17T03:43:57.199Z,6.40
2018-07-17T03:46:25.650Z,6.93
2018-07-17T03:48:54.071Z,5.75
2018-07-17T03:51:22.525Z,6.58
2018-07-17T03:53:50.973Z,7.17
2018-07-17T03:56:19.802Z,6.47
2018-07-17T03:58:48.381Z,6.45
2018-07-17T04:01:18.886Z,6.77
2018-07-17T04:03:47.350Z,6.37
2018-07-17T04:06:15.787Z,6.03
2018-07-17T04:08:44.237Z,6.37
2018-07-17T04:11:12.675Z,6.25
2018-07-17T04:13:41.211Z,6.37
2018-07-17T04:16:09.629Z,7.03
2018-07-17T04:18:39.575Z,6.17
2018-07-17T04:21:08.028Z,6.43
2018-07-17T04:23:36.460Z,5.97
2018-07-17T04:26:04.946Z,5.30
2018-07-17T04:28:33.379Z,6.03
2018-07-17T04:31:01.806Z,5.90
2018-07-17T04:33:30.226Z,7.27
2018-07-17T04:35:58.686Z,6.00
2018-07-17T04:38:27.215Z,5.80
2018-07-17T04:40:55.587Z,5.80
2018-07-17T04:43:24.040Z,5.40
2018-07-17T04:45:52.475Z,6.20
2018-07-17T04:48:20.908Z,6.27
2018-07-17T04:50:49.369Z,6.00
2018-07-17T04:53:17.814Z,5.70
2018-07-17T04:55:46.253Z,6.10
2018-07-17T04:58:14.698Z,7.00
2018-07-17T05:00:43.148Z,5.33
2018-07-17T05:03:11.587Z,5.80
2018-07-17T05:05:40.050Z,5.57
2018-07-17T05:08:08.513Z,12.70
2018-07-17T05:10:36.999Z,6.07
2018-07-17T05:13:05.574Z,5.87
2018-07-17T05:15:34.008Z,5.27
2018-07-17T05:18:02.454Z,5.70
2018-07-17T05:20:30.894Z,5.37
2018-07-17T05:22:59.333Z,4.87
2018-07-17T05:25:27.776Z,4.70
2018-07-17T05:27:56.278Z,4.97
2018-07-17T05:30:24.718Z,5.00
2018-07-17T05:32:53.163Z,4.57
2018-07-17T05:35:21.624Z,4.47
2018-07-17T05:37:50.038Z,4.10
2018-07-17T05:40:18.513Z,4.20
2018-07-17T05:42:46.947Z,4.63
2018-07-17T05:45:15.393Z,4.60
2018-07-17T05:47:43.818Z,4.70
2018-07-17T05:50:13.022Z,4.20
2018-07-17T05:52:41.523Z,4.10
2018-07-17T05:55:09.990Z,5.10
2018-07-17T05:57:38.469Z,3.90
2018-07-17T06:00:07.953Z,5.27
2018-07-17T06:02:36.409Z,5.03
2018-07-17T06:05:05.047Z,4.40
2018-07-17T06:07:33.466Z,4.13
2018-07-17T06:10:01.954Z,4.40
2018-07-17T06:12:30.402Z,4.00
2018-07-17T06:14:58.855Z,4.47
2018-07-17T06:17:27.282Z,4.70
2018-07-17T06:19:55.723Z,4.50
2018-07-17T06:22:24.167Z,4.97
2018-07-17T06:24:52.580Z,5.50
2018-07-17T06:27:21.008Z,4.77
2018-07-17T06:29:49.434Z,4.60
2018-07-17T06:32:17.854Z,5.30
2018-07-17T06:34:46.270Z,5.00
2018-07-17T06:37:14.694Z,4.90
2018-07-17T06:39:43.108Z,4.57
2018-07-17T06:42:11.703Z,4.70
2018-07-17T06:44:39.834Z,4.40
2018-07-17T06:47:08.269Z,5.10
2018-07-17T06:49:36.717Z,4.50
2018-07-17T06:52:05.215Z,4.60
2018-07-17T06:54:33.641Z,4.70
2018-07-17T06:57:02.094Z,5.07
2018-07-17T06:59:30.630Z,5.07
2018-07-17T07:01:59.136Z,5.00
2018-07-17T07:04:27.572Z,5.40
2018-07-17T07:06:56.035Z,4.73
2018-07-17T07:09:24.478Z,5.00
2018-07-17T07:11:52.985Z,4.77
2018-07-17T07:14:21.536Z,4.07
2018-07-17T07:16:50.067Z,4.50
2018-07-17T07:19:18.605Z,3.83
2018-07-17T07:21:46.737Z,4.40
2018-07-17T07:24:15.183Z,5.10
2018-07-17T07:26:43.634Z,5.10
2018-07-17T07:29:12.057Z,5.20
2018-07-17T07:31:40.511Z,4.80
2018-07-17T07:34:08.941Z,5.63
2018-07-17T07:36:37.398Z,5.43
2018-07-17T07:39:07.992Z,5.80
2018-07-17T07:41:36.442Z,5.17
2018-07-17T07:44:05.106Z,5.07
2018-07-17T07:46:33.553Z,5.23
2018-07-17T07:49:01.979Z,6.40
2018-07-17T07:51:30.890Z,4.87
2018-07-17T07:53:59.462Z,5.33
2018-07-17T07:56:27.990Z,4.10
2018-07-17T07:58:56.418Z,4.63
2018-07-17T08:01:24.853Z,4.47
2018-07-17T08:03:53.384Z,5.20
2018-07-17T08:06:21.803Z,4.70
2018-07-17T08:08:50.245Z,4.70
2018-07-17T08:11:18.842Z,5.30
2018-07-17T08:13:47.316Z,4.80
2018-07-17T08:16:15.868Z,5.90
2018-07-17T08:18:44.328Z,5.03
2018-07-17T08:21:13.286Z,5.50
2018-07-17T08:23:41.824Z,4.80
2018-07-17T08:26:11.908Z,4.70
2018-07-17T08:28:40.417Z,5.07
2018-07-17T08:31:08.906Z,5.30
2018-07-17T08:33:37.373Z,5.30
2018-07-17T08:36:05.971Z,5.03
2018-07-17T08:38:34.484Z,5.40
2018-07-17T08:41:02.929Z,4.83
2018-07-17T08:43:31.594Z,5.13
2018-07-17T08:45:59.817Z,4.93
2018-07-17T08:48:28.253Z,5.67
2018-07-17T08:50:56.745Z,5.83
2018-07-17T08:53:25.197Z,5.50
2018-07-17T08:55:53.809Z,5.70
2018-07-17T08:58:22.248Z,5.70
2018-07-17T09:00:50.730Z,6.20
2018-07-17T09:03:19.163Z,5.23
2018-07-17T09:05:47.671Z,6.07
2018-07-17T09:08:16.131Z,5.90
2018-07-17T09:10:44.282Z,6.53
2018-07-17T09:13:13.352Z,5.60
2018-07-17T09:15:41.876Z,5.90
2018-07-17T09:18:10.366Z,5.73
2018-07-17T09:20:38.810Z,6.20
2018-07-17T09:23:07.254Z,5.17
2018-07-17T09:25:35.731Z,5.87
2018-07-17T09:28:04.249Z,4.73
2018-07-17T09:30:37.903Z,5.87
2018-07-17T09:33:06.358Z,6.00
2018-07-17T09:35:34.805Z,5.40
2018-07-17T09:38:03.253Z,5.90
2018-07-17T09:40:31.835Z,6.03
2018-07-17T09:43:00.365Z,5.90
2018-07-17T09:45:28.798Z,6.17
2018-07-17T09:47:57.391Z,6.00
2018-07-17T09:50:25.827Z,5.93
2018-07-17T09:52:54.258Z,7.23
2018-07-17T09:55:23.640Z,4.80
2018-07-17T09:57:51.878Z,5.43
2018-07-17T10:00:25.617Z,8.60
2018-07-17T10:02:54.084Z,5.80
2018-07-17T10:05:22.576Z,4.73
2018-07-17T10:07:51.034Z,5.83
2018-07-17T10:10:19.537Z,5.10
2018-07-17T10:12:48.011Z,5.27
2018-07-17T10:15:16.522Z,5.40
2018-07-17T10:17:44.983Z,6.10
2018-07-17T10:20:13.531Z,5.67
2018-07-17T10:22:41.981Z,6.00
2018-07-17T10:25:10.571Z,5.00
2018-07-17T10:27:39.744Z,5.13
2018-07-17T10:30:09.085Z,4.67
2018-07-17T10:32:37.842Z,5.40
2018-07-17T10:35:06.422Z,5.20
2018-07-17T10:37:34.874Z,5.40
2018-07-17T10:40:03.381Z,6.10
2018-07-17T10:42:31.854Z,8.10
2018-07-17T10:45:00.327Z,6.13
2018-07-17T10:47:28.820Z,6.47
2018-07-17T10:49:57.289Z,6.57
2018-07-17T10:52:25.751Z,6.53
2018-07-17T10:54:54.211Z,6.30
2018-07-17T10:57:22.714Z,5.40
2018-07-17T10:59:51.177Z,5.23
2018-07-17T11:02:19.654Z,5.10
2018-07-17T11:04:48.121Z,5.00
2018-07-17T11:07:16.569Z,4.23
2018-07-17T11:09:45.079Z,4.43
2018-07-17T11:12:13.610Z,4.80
2018-07-17T11:14:42.385Z,4.20
2018-07-17T11:17:10.910Z,3.80
2018-07-17T11:19:39.458Z,4.40
2018-07-17T11:22:08.008Z,4.50
2018-07-17T11:24:36.457Z,3.80
2018-07-17T11:27:06.036Z,4.13
2018-07-17T11:29:34.465Z,4.27
2018-07-17T11:32:02.959Z,3.83
2018-07-17T11:34:31.317Z,4.07
2018-07-17T11:37:01.406Z,4.20
2018-07-17T11:39:30.711Z,4.70
2018-07-17T11:41:59.518Z,3.77
2018-07-17T11:44:28.496Z,4.03
2018-07-17T11:46:57.581Z,4.40
2018-07-17T11:49:26.005Z,4.23
2018-07-17T11:51:54.441Z,4.10
2018-07-17T11:54:22.882Z,4.43
2018-07-17T11:56:51.441Z,5.00
2018-07-17T11:59:20.133Z,4.00
2018-07-17T12:01:48.683Z,4.20
2018-07-17T12:04:17.247Z,3.93
2018-07-17T12:06:45.678Z,3.47
2018-07-17T12:09:14.143Z,4.03
2018-07-17T12:11:43.269Z,4.03
2018-07-17T12:14:11.713Z,3.67
2018-07-17T12:16:40.211Z,4.03
2018-07-17T12:19:08.647Z,3.00
2018-07-17T12:21:37.066Z,3.27
2018-07-17T12:24:05.559Z,2.87
2018-07-17T12:26:34.014Z,3.67
2018-07-17T12:29:02.539Z,3.73
2018-07-17T12:31:31.080Z,3.60
2018-07-17T12:33:59.760Z,3.40
2018-07-17T12:36:28.210Z,3.27
2018-07-17T12:38:56.927Z,3.80
2018-07-17T12:41:25.444Z,3.43
2018-07-17T12:43:53.913Z,2.93
2018-07-17T12:46:22.413Z,3.10
2018-07-17T12:48:50.894Z,3.23
2018-07-17T12:51:19.396Z,3.10
2018-07-17T12:53:47.914Z,3.03
2018-07-17T12:56:16.417Z,3.40
2018-07-17T12:58:44.944Z,3.50
2018-07-17T13:01:13.358Z,4.47
2018-07-17T13:03:43.117Z,3.60
2018-07-17T13:06:11.628Z,3.60
2018-07-17T13:08:40.139Z,3.50
2018-07-17T13:11:08.843Z,3.77
2018-07-17T13:13:37.470Z,4.67
2018-07-17T13:16:05.971Z,5.53
2018-07-17T13:18:34.707Z,5.20
2018-07-17T13:21:03.233Z,4.10
2018-07-17T13:23:31.902Z,4.27
2018-07-17T13:26:00.836Z,4.10
2018-07-17T13:28:29.572Z,4.50
2018-07-17T13:30:58.108Z,4.93
2018-07-17T13:33:26.602Z,5.00
2018-07-17T13:35:55.099Z,4.70
2018-07-17T13:38:23.598Z,4.30
2018-07-17T13:40:52.146Z,4.50
2018-07-17T13:43:20.601Z,4.20
2018-07-17T13:45:49.060Z,4.43
2018-07-17T13:48:17.510Z,4.17
2018-07-17T13:50:45.929Z,4.43
2018-07-17T13:53:14.379Z,3.77
2018-07-17T13:55:42.850Z,3.47
2018-07-17T13:58:11.362Z,3.80
2018-07-17T14:00:39.623Z,3.83
2018-07-17T14:03:08.086Z,4.27
2018-07-17T14:05:36.534Z,3.73
2018-07-17T14:08:05.230Z,3.77
2018-07-17T14:10:33.771Z,4.70
2018-07-17T14:13:01.990Z,4.80
2018-07-17T14:15:30.481Z,4.83
2018-07-17T14:17:58.938Z,4.70
2018-07-17T14:20:27.401Z,5.10
2018-07-17T14:22:55.867Z,5.73
2018-07-17T14:25:24.317Z,5.60
2018-07-17T14:27:52.436Z,6.23
2018-07-17T14:30:20.929Z,6.57
2018-07-17T14:32:49.308Z,8.77
2018-07-17T14:35:17.768Z,6.37
2018-07-17T14:37:46.229Z,10.70
2018-07-17T14:40:14.361Z,10.43
2018-07-17T14:42:42.810Z,11.17
2018-07-17T14:45:11.243Z,10.37
2018-07-17T14:47:39.676Z,9.90
2018-07-17T14:50:08.649Z,7.90
2018-07-17T14:52:37.186Z,8.33
2018-07-17T14:55:06.939Z,9.00
2018-07-17T14:57:35.429Z,10.73
2018-07-17T15:00:04.792Z,10.37
2018-07-17T15:02:33.290Z,9.73
2018-07-17T15:05:01.795Z,7.80
2018-07-17T15:07:30.234Z,6.70
2018-07-17T15:09:58.770Z,7.07
2018-07-17T15:12:29.169Z,5.50
2018-07-17T15:14:58.019Z,5.67
2018-07-17T15:17:27.401Z,4.63
2018-07-17T15:19:58.067Z,3.90
2018-07-17T15:22:28.737Z,7.70
2018-07-17T15:24:57.875Z,3.27
2018-07-17T15:27:26.425Z,2.73
2018-07-17T15:29:57.294Z,3.17
2018-07-17T15:32:27.436Z,2.57
2018-07-17T15:34:58.179Z,2.30
2018-07-17T15:37:26.693Z,4.23
2018-07-17T15:39:56.639Z,3.50
2018-07-17T15:42:25.258Z,2.47
2018-07-17T15:44:54.794Z,3.07
2018-07-17T15:47:24.297Z,2.60
2018-07-17T15:49:55.191Z,2.90
2018-07-17T15:52:23.760Z,2.47
2018-07-17T15:54:56.567Z,2.87
2018-07-17T15:57:25.057Z,2.40
2018-07-17T15:59:53.545Z,2.50
2018-07-17T16:02:21.966Z,2.27
2018-07-17T16:04:50.765Z,2.87
2018-07-17T16:07:20.119Z,2.67
2018-07-17T16:09:48.933Z,2.83
2018-07-17T16:12:18.277Z,3.47
2018-07-17T16:14:46.723Z,2.53
2018-07-17T16:17:15.202Z,2.57
2018-07-17T16:19:43.637Z,2.50
2018-07-17T16:22:12.094Z,2.67
2018-07-17T16:24:40.526Z,2.37
2018-07-17T16:27:09.017Z,3.00
2018-07-17T16:29:37.452Z,2.57
2018-07-17T16:32:06.185Z,2.27
2018-07-17T16:34:34.659Z,2.50
2018-07-17T16:37:03.278Z,2.40
2018-07-17T16:39:31.412Z,2.70
2018-07-17T16:41:59.837Z,2.10
2018-07-17T16:44:28.349Z,2.20
2018-07-17T16:46:56.809Z,2.50
2018-07-17T16:49:25.240Z,2.80
2018-07-17T16:51:53.687Z,2.90
2018-07-17T16:54:22.518Z,2.93
2018-07-17T16:56:51.030Z,2.57
2018-07-17T16:59:19.470Z,2.47
2018-07-17T17:01:47.912Z,2.67
2018-07-17T17:04:16.385Z,2.77
2018-07-17T17:06:44.858Z,2.00
2018-07-17T17:09:13.294Z,3.10
2018-07-17T17:11:43.285Z,3.37
2018-07-17T17:14:11.724Z,3.30
2018-07-17T17:16:40.907Z,3.60
2018-07-17T17:19:09.364Z,3.93
2018-07-17T17:21:38.066Z,3.80
2018-07-17T17:24:06.666Z,5.00
2018-07-17T17:26:35.098Z,4.13
2018-07-17T17:29:03.549Z,4.30
2018-07-17T17:31:32.205Z,3.70
2018-07-17T17:34:00.822Z,4.47
2018-07-17T17:36:29.468Z,4.20
2018-07-17T17:38:57.634Z,3.70
2018-07-17T17:41:26.071Z,3.47
2018-07-17T17:43:55.117Z,3.53
2018-07-17T17:46:23.599Z,3.40
2018-07-17T17:48:52.087Z,4.17
2018-07-17T17:51:20.578Z,3.70
2018-07-17T17:54:06.577Z,4.43
2018-07-17T17:56:35.045Z,4.33
2018-07-17T17:59:03.657Z,3.90
2018-07-17T18:01:32.118Z,4.47
2018-07-17T18:04:00.971Z,4.20
2018-07-17T18:06:32.366Z,4.43
2018-07-17T18:09:04.803Z,3.87
2018-07-17T18:11:34.056Z,4.37
2018-07-17T18:14:02.521Z,5.77
2018-07-17T18:16:30.938Z,6.00
2018-07-17T18:18:59.398Z,6.90
2018-07-17T18:21:27.832Z,6.50
2018-07-17T18:23:56.289Z,6.70
2018-07-17T18:26:24.705Z,5.93
2018-07-17T18:28:53.165Z,5.63
2018-07-17T18:31:21.605Z,6.17
2018-07-17T18:33:50.042Z,5.90
2018-07-17T18:36:18.461Z,6.97
2018-07-17T18:38:47.909Z,5.30
2018-07-17T18:41:16.325Z,6.07
2018-07-17T18:43:45.100Z,6.10
2018-07-17T18:46:13.993Z,5.40
2018-07-17T18:48:48.208Z,6.00
2018-07-17T18:51:17.436Z,5.93
2018-07-17T18:53:46.644Z,5.27
2018-07-17T18:56:15.380Z,5.70
2018-07-17T18:58:44.857Z,5.60
2018-07-17T19:01:13.985Z,5.67
2018-07-17T19:03:42.525Z,5.87
2018-07-17T19:06:11.322Z,5.90
2018-07-17T19:08:39.948Z,5.43
2018-07-17T19:11:08.778Z,5.90
2018-07-17T19:13:37.444Z,6.33
2018-07-17T19:16:05.760Z,6.00
2018-07-17T19:18:34.475Z,5.70
2018-07-17T19:21:03.662Z,5.57
2018-07-17T19:23:35.001Z,5.80
2018-07-17T19:26:03.797Z,6.00
2018-07-17T19:28:32.386Z,5.80
2018-07-17T19:31:00.997Z,5.67
2018-07-17T19:33:29.737Z,4.90
2018-07-17T19:35:58.363Z,6.70
2018-07-17T19:38:27.147Z,6.70
2018-07-17T19:40:55.716Z,6.37
2018-07-17T19:43:24.633Z,5.73
2018-07-17T19:45:53.177Z,6.43
2018-07-17T19:48:21.778Z,5.93
2018-07-17T19:50:50.259Z,6.03
2018-07-17T19:53:23.962Z,4.80
2018-07-17T19:55:52.445Z,5.60
2018-07-17T19:58:21.185Z,5.20
2018-07-17T20:00:50.644Z,5.63
2018-07-17T20:03:19.370Z,5.00
2018-07-17T20:05:48.229Z,5.73
2018-07-17T20:08:18.080Z,5.87
2018-07-17T20:10:46.845Z,5.80
2018-07-17T20:13:15.535Z,5.30
2018-07-17T20:15:44.436Z,5.70
2018-07-17T20:18:13.162Z,6.17
2018-07-17T20:20:42.575Z,6.13
2018-07-17T20:23:11.679Z,6.10
2018-07-17T20:25:40.354Z,6.40
2018-07-17T20:28:09.140Z,6.27
2018-07-17T20:30:37.753Z,5.20
2018-07-17T20:33:06.727Z,4.63
2018-07-17T20:35:35.429Z,6.60
2018-07-17T20:38:04.200Z,6.00
2018-07-17T20:40:33.016Z,5.57
2018-07-17T20:43:01.798Z,6.90
2018-07-17T20:45:30.977Z,6.67
2018-07-17T20:47:59.733Z,5.87
2018-07-17T20:50:28.966Z,5.73
2018-07-17T20:52:57.711Z,5.53
2018-07-17T20:55:26.260Z,5.33
2018-07-17T20:57:54.717Z,5.10
2018-07-17T21:00:23.154Z,5.87
2018-07-17T21:02:51.619Z,5.93
2018-07-17T21:05:20.065Z,5.07
2018-07-17T21:07:49.578Z,5.17
2018-07-17T21:10:18.010Z,5.90
2018-07-17T21:12:46.493Z,6.30
2018-07-17T21:15:14.939Z,4.70
2018-07-17T21:17:43.389Z,5.97
2018-07-17T21:20:12.098Z,5.00
2018-07-17T21:22:40.557Z,5.33
2018-07-17T21:25:09.009Z,5.70
2018-07-17T21:27:37.462Z,5.77
2018-07-17T21:30:05.930Z,6.30
2018-07-17T21:32:34.995Z,5.90
2018-07-17T21:35:03.466Z,6.00
2018-07-17T21:37:31.904Z,5.60
2018-07-17T21:40:00.323Z,6.43
2018-07-17T21:42:28.754Z,6.20
2018-07-17T21:44:57.197Z,5.60
2018-07-17T21:47:25.618Z,5.07
2018-07-17T21:49:54.062Z,5.50
2018-07-17T21:52:22.497Z,6.27
2018-07-17T21:54:50.955Z,6.13
2018-07-17T21:57:19.389Z,5.63
2018-07-17T21:59:47.862Z,5.77
2018-07-17T22:02:16.299Z,6.00
2018-07-17T22:04:44.718Z,5.83
2018-07-17T22:07:13.149Z,5.80
2018-07-17T22:09:41.587Z,6.13
2018-07-17T22:12:09.986Z,6.50
2018-07-17T22:14:38.422Z,6.53
2018-07-17T22:17:06.845Z,6.00
2018-07-17T22:19:35.265Z,6.13
2018-07-17T22:22:03.709Z,5.70
2018-07-17T22:24:32.237Z,5.93
2018-07-17T22:27:00.682Z,5.57
2018-07-17T22:29:29.102Z,5.73
2018-07-17T22:31:59.520Z,5.77
2018-07-17T22:34:27.946Z,5.77
2018-07-17T22:36:56.388Z,5.60
2018-07-17T22:39:24.817Z,5.03
2018-07-17T22:41:53.286Z,6.13
2018-07-17T22:44:21.713Z,6.87
2018-07-17T22:46:50.156Z,6.23
2018-07-17T22:49:23.186Z,5.77
2018-07-17T22:51:53.485Z,5.30
2018-07-17T22:54:21.970Z,6.37
2018-07-17T22:56:50.133Z,6.10
2018-07-17T22:59:19.346Z,6.13
2018-07-17T23:01:48.244Z,7.70
2018-07-17T23:04:17.156Z,5.80
2018-07-17T23:06:45.944Z,7.60
2018-07-17T23:09:14.397Z,6.57
2018-07-17T23:11:42.849Z,7.67
2018-07-17T23:14:11.612Z,7.20
2018-07-17T23:16:40.218Z,6.43
2018-07-17T23:19:08.827Z,7.33
2018-07-17T23:21:37.393Z,8.43
2018-07-17T23:24:05.905Z,7.83
2018-07-17T23:26:34.457Z,9.83
2018-07-17T23:29:03.621Z,8.40
2018-07-17T23:31:32.203Z,8.00
2018-07-17T23:34:01.356Z,8.00
2018-07-17T23:36:30.165Z,8.50
2018-07-17T23:38:58.787Z,8.30
2018-07-17T23:41:27.623Z,7.20
2018-07-17T23:43:56.829Z,6.80
2018-07-17T23:46:25.935Z,8.40
2018-07-17T23:48:54.401Z,7.73
2018-07-17T23:51:22.952Z,8.27
2018-07-17T23:53:51.510Z,7.80
2018-07-17T23:56:20.159Z,6.97
2018-07-17T23:58:48.717Z,7.43
